Time;durP1;ratioP1;P1;durP2;ratioP2;P2;SDS_P1;SDS_P2;PMS_P1;PMS_P2;Temp;Humidity;BMP_temperature;BMP_pressure;BME280_temperature;BME280_humidity;BME280_pressure;Samples;Min_cycle;Max_cycle;Signal;HPM_P1;HPM_P2
2022/12/26 00:02:20;;;;;;;7.60;5.28;;;;;;;6.89;73.50;101022.74;1786250;80;21033;-65
2022/12/26 00:04:46;;;;;;;7.80;5.95;;;;;;;6.58;74.25;101014.67;1786205;80;21109;-66
2022/12/26 00:07:13;;;;;;;8.78;5.92;;;;;;;6.57;73.79;101009.88;1786248;80;21554;-65
2022/12/26 00:09:40;;;;;;;8.45;6.00;;;;;;;6.50;73.13;101009.05;1786019;80;21078;-65
2022/12/26 00:12:06;;;;;;;7.78;5.50;;;;;;;6.37;73.42;101019.15;1785999;80;21090;-66
2022/12/26 00:14:33;;;;;;;7.17;5.22;;;;;;;6.66;73.16;101023.35;1786105;80;21258;-66
2022/12/26 00:16:59;;;;;;;7.92;5.30;;;;;;;6.57;73.01;101019.48;1785984;80;21039;-66
2022/12/26 00:19:26;;;;;;;8.20;5.95;;;;;;;6.31;74.48;101021.82;1785914;80;21043;-65
2022/12/26 00:21:52;;;;;;;9.53;6.22;;;;;;;6.44;74.36;101023.50;1786067;80;21038;-65
2022/12/26 00:24:19;;;;;;;8.28;6.35;;;;;;;6.68;73.54;101017.67;1786281;80;21150;-65
2022/12/26 00:26:46;;;;;;;8.00;5.53;;;;;;;6.68;73.66;101022.91;1786129;80;21168;-65
2022/12/26 00:29:12;;;;;;;10.80;6.25;;;;;;;6.90;72.88;101016.64;1786259;79;21541;-64
2022/12/26 00:31:39;;;;;;;10.70;6.75;;;;;;;6.97;72.68;101010.02;1786521;80;21041;-65
2022/12/26 00:34:09;;;;;;;13.30;8.05;;;;;;;6.86;72.71;101014.92;1786143;79;21061;-64
2022/12/26 00:36:35;;;;;;;15.70;9.23;;;;;;;7.05;71.71;101006.91;1786538;80;21049;-65
2022/12/26 00:39:02;;;;;;;13.72;8.00;;;;;;;6.76;72.56;101001.45;1786607;80;21099;-65
2022/12/26 00:41:28;;;;;;;15.03;8.83;;;;;;;6.85;71.81;101007.92;1786271;80;21089;-65
2022/12/26 00:43:55;;;;;;;17.50;8.75;;;;;;;6.93;72.13;101005.27;1786288;80;21538;-65
2022/12/26 00:46:25;;;;;;;17.80;8.45;;;;;;;7.02;72.12;101010.44;1786465;80;21049;-66
2022/12/26 00:48:51;;;;;;;12.58;6.47;;;;;;;6.94;72.07;101000.45;1786746;79;21046;-65
2022/12/26 00:51:17;;;;;;;9.33;5.62;;;;;;;6.82;72.71;101006.66;1786330;79;21128;-65
2022/12/26 00:53:45;;;;;;;11.38;6.30;;;;;;;6.79;72.26;101004.52;1786158;80;21045;-64
2022/12/26 00:56:12;;;;;;;9.68;6.22;;;;;;;6.83;71.91;101005.80;1786241;80;21029;-64
2022/12/26 00:58:40;;;;;;;9.98;6.03;;;;;;;7.16;70.95;101009.45;1785964;80;21529;-64
2022/12/26 01:01:16;;;;;;;9.18;6.35;;;;;;;7.03;70.49;101025.70;1801190;78;21057;-65
2022/12/26 01:03:43;;;;;;;9.10;6.12;;;;;;;7.12;70.15;101026.94;1818562;78;21859;-66
2022/12/26 01:06:10;;;;;;;9.75;6.20;;;;;;;6.70;70.50;101021.16;1818310;78;21006;-65
2022/12/26 01:08:37;;;;;;;12.25;6.85;;;;;;;6.67;70.40;101029.00;1818303;78;21029;-67
2022/12/26 01:11:11;;;;;;;8.58;5.85;;;;;;;6.35;70.77;101030.09;1818271;78;21068;-64
2022/12/26 01:13:38;;;;;;;11.25;7.08;;;;;;;6.72;69.19;101030.73;1818458;78;21045;-65
2022/12/26 01:16:06;;;;;;;11.50;7.67;;;;;;;6.35;68.83;101032.70;1818470;78;21780;-65
2022/12/26 01:18:33;;;;;;;11.57;7.10;;;;;;;6.47;68.70;101029.15;1818493;78;21057;-64
2022/12/26 01:21:05;;;;;;;14.87;7.87;;;;;;;6.47;68.68;101026.09;1818171;78;22092;-65
2022/12/26 01:23:34;;;;;;;13.85;6.60;;;;;;;6.42;68.88;101034.41;1817559;78;20989;-64
2022/12/26 01:26:00;;;;;;;12.45;6.90;;;;;;;6.43;69.17;101021.74;1818310;78;21061;-65
2022/12/26 01:28:27;;;;;;;10.18;6.67;;;;;;;6.60;69.01;101029.92;1790555;78;21243;-65
2022/12/26 01:30:54;;;;;;;13.58;6.55;;;;;;;6.60;69.96;101031.23;1786066;79;21461;-65
2022/12/26 01:33:20;;;;;;;12.33;7.05;;;;;;;6.70;68.88;101031.17;1786287;80;21021;-65
2022/12/26 01:35:52;;;;;;;11.73;7.03;;;;;;;6.70;69.20;101026.39;1786158;80;21166;-64
2022/12/26 01:38:20;;;;;;;12.93;7.08;;;;;;;7.08;68.15;101025.22;1786418;80;21061;-66
2022/12/26 01:40:48;;;;;;;10.72;6.50;;;;;;;7.15;66.87;101029.52;1786103;80;21301;-65
2022/12/26 01:43:16;;;;;;;9.13;6.17;;;;;;;7.49;66.75;101024.83;1785981;80;21049;-64
2022/12/26 01:45:45;;;;;;;12.07;7.08;;;;;;;7.44;65.88;101025.78;1786406;79;21058;-65
2022/12/26 01:48:17;;;;;;;10.03;6.53;;;;;;;7.34;66.52;101031.11;1768763;80;21017;-65
2022/12/26 01:50:55;;;;;;;8.78;5.80;;;;;;;7.12;66.44;101030.86;1793004;78;21076;-64
2022/12/26 01:53:30;;;;;;;12.37;6.60;;;;;;;7.59;65.08;101019.50;1814742;78;21436;-64
2022/12/26 01:56:07;;;;;;;10.75;7.10;;;;;;;6.85;67.24;101011.00;1818076;78;22082;-65
2022/12/26 01:58:39;;;;;;;8.63;5.20;;;;;;;7.01;67.32;101013.05;1818374;78;21068;-65
2022/12/26 02:01:06;;;;;;;8.60;5.90;;;;;;;6.84;67.50;101014.06;1816907;78;21053;-65
2022/12/26 02:06:20;;;;;;;9.65;5.72;;;;;;;6.37;70.12;101016.98;1812354;79;21571;-65
2022/12/26 02:08:47;;;;;;;11.97;7.03;;;;;;;6.86;68.85;101016.23;1812348;79;21049;-66
2022/12/26 02:11:24;;;;;;;9.05;5.67;;;;;;;6.77;69.01;101013.68;1812625;79;21048;-65
2022/12/26 02:13:51;;;;;;;9.78;6.78;;;;;;;6.51;69.92;101014.73;1812290;79;21084;-65
2022/12/26 02:16:18;;;;;;;11.35;6.90;;;;;;;6.83;69.84;101005.80;1812550;79;21080;-64
2022/12/26 02:18:45;;;;;;;12.00;7.12;;;;;;;7.11;69.51;101009.50;1812462;79;21127;-64
2022/12/26 02:21:34;;;;;;;11.12;7.25;;;;;;;7.41;67.48;101017.92;1812592;79;21088;-64
2022/12/26 02:24:15;;;;;;;17.95;9.15;;;;;;;6.76;68.01;101013.23;1812416;79;21049;-65
2022/12/26 02:27:12;;;;;;;20.88;9.05;;;;;;;6.40;68.92;101008.69;1807944;79;21657;-65
2022/12/26 02:30:26;;;;;;;12.75;8.08;;;;;;;6.43;68.52;101015.20;1757732;80;21052;-64
2022/12/26 02:33:31;;;;;;;12.58;7.97;;;;;;;5.99;70.10;101016.30;1780532;80;21164;-66
2022/12/26 02:36:27;;;;;;;13.28;8.40;;;;;;;6.20;70.19;101017.94;1780352;80;21018;-64
2022/12/26 02:39:14;;;;;;;15.10;7.22;;;;;;;6.03;71.17;101020.64;1712421;83;21121;-64
2022/12/26 02:41:52;;;;;;;15.75;8.08;;;;;;;6.29;69.67;101022.27;1772291;80;21036;-64
2022/12/26 02:47:39;;;;;;;12.80;7.58;;;;;;;6.29;70.23;101017.03;1780603;80;21253;-65
2022/12/26 03:14:21;;;;;;;14.28;7.30;;;;;;;6.27;68.41;101003.09;1780745;80;21494;-65
2022/12/26 03:19:56;;;;;;;13.08;7.90;;;;;;;6.08;70.20;101008.41;1780339;80;21022;-65
2022/12/26 03:22:29;;;;;;;16.35;8.38;;;;;;;6.35;68.87;101009.16;1776156;80;22107;-65
2022/12/26 03:26:38;;;;;;;17.62;8.50;;;;;;;6.58;67.46;101005.51;1776121;80;22145;-64
2022/12/26 03:27:03;;;;;;;11.50;7.80;;;;;;;6.12;69.18;101005.77;1785374;79;21033;-65
2022/12/26 03:32:16;;;;;;;11.60;7.62;;;;;;;5.89;69.30;101006.73;1786123;79;21000;-64
2022/12/26 03:34:43;;;;;;;10.58;6.70;;;;;;;6.07;67.80;101011.91;1812599;79;21045;-65
2022/12/26 03:37:33;;;;;;;14.10;7.55;;;;;;;6.29;66.64;101018.34;1812501;79;21521;-65
2022/12/26 04:44:32;;;;;;;9.25;6.58;;;;;;;6.14;65.46;101048.48;1780460;80;21045;-65
2022/12/26 04:46:59;;;;;;;11.05;7.55;;;;;;;6.53;65.09;101042.17;1780458;80;21581;-65
2022/12/26 04:52:13;;;;;;;14.83;8.23;;;;;;;5.88;65.86;101050.72;1780335;80;21560;-66
2022/12/26 04:54:41;;;;;;;11.60;7.35;;;;;;;5.97;65.85;101055.95;1780512;80;21134;-64
2022/12/26 04:57:09;;;;;;;11.00;7.05;;;;;;;5.75;66.22;101052.92;1780484;80;21057;-65
2022/12/26 04:59:36;;;;;;;11.03;7.05;;;;;;;6.02;65.78;101053.33;1780554;80;21017;-65
2022/12/26 05:10:26;;;;;;;16.45;9.48;;;;;;;6.28;64.51;101063.67;1780428;80;21018;-65
2022/12/26 05:12:54;;;;;;;12.65;9.33;;;;;;;5.55;65.75;101067.36;1780573;80;21101;-65
2022/12/26 05:15:22;;;;;;;12.85;7.83;;;;;;;6.51;64.13;101063.14;1780534;80;21037;-65
2022/12/26 05:28:56;;;;;;;10.80;7.45;;;;;;;6.57;63.89;101090.16;1738400;80;21639;-66
2022/12/26 05:31:22;;;;;;;11.05;7.15;;;;;;;6.90;63.31;101089.06;1780579;80;21100;-64
2022/12/26 05:34:09;;;;;;;13.70;8.25;;;;;;;6.85;63.31;101095.64;1780537;80;21077;-65
2022/12/26 05:36:49;;;;;;;13.32;8.65;;;;;;;6.63;63.47;101099.29;1780436;80;21119;-65
2022/12/26 05:39:15;;;;;;;12.55;8.53;;;;;;;6.04;64.95;101109.97;1780750;80;21104;-66
2022/12/26 05:41:42;;;;;;;14.25;9.00;;;;;;;6.45;64.22;101106.34;1780482;80;20986;-66
2022/12/26 05:44:09;;;;;;;15.38;8.73;;;;;;;6.82;63.33;101102.22;1780574;80;21010;-65
2022/12/26 05:46:35;;;;;;;11.57;7.67;;;;;;;7.03;62.41;101099.03;1780443;80;21257;-64
2022/12/26 05:49:03;;;;;;;13.32;7.10;;;;;;;6.54;63.82;101103.27;1780514;80;21062;-66
2022/12/26 05:51:29;;;;;;;12.98;7.35;;;;;;;6.63;64.70;101099.29;1780806;80;21057;-66
2022/12/26 05:53:56;;;;;;;14.73;7.95;;;;;;;6.70;64.21;101099.69;1780587;80;21018;-64
2022/12/26 05:56:23;;;;;;;13.40;7.97;;;;;;;7.05;63.42;101103.83;1780722;80;21014;-66
2022/12/26 05:58:55;;;;;;;8.50;5.92;;;;;;;6.86;63.87;101100.47;1780351;80;21136;-66
2022/12/26 06:01:22;;;;;;;12.30;7.42;;;;;;;7.38;62.53;101099.20;1780719;80;21045;-64
2022/12/26 06:03:52;;;;;;;13.00;7.65;;;;;;;7.54;62.31;101101.66;1780551;80;21088;-65
2022/12/26 06:06:19;;;;;;;12.98;7.80;;;;;;;7.05;62.91;101099.90;1780499;80;21076;-65
2022/12/26 06:08:51;;;;;;;11.63;7.45;;;;;;;6.47;64.06;101103.28;1780527;80;21053;-66
2022/12/26 06:11:17;;;;;;;9.88;6.62;;;;;;;6.27;65.47;101102.05;1780893;80;21083;-65
2022/12/26 06:13:44;;;;;;;15.38;8.55;;;;;;;6.59;64.69;101096.25;1780367;80;21040;-65
2022/12/26 06:16:13;;;;;;;12.35;8.50;;;;;;;6.50;65.03;101099.33;1780282;80;21060;-65
2022/12/26 06:18:39;;;;;;;12.63;8.20;;;;;;;6.45;64.98;101090.64;1780508;80;21072;-65
2022/12/26 06:21:10;;;;;;;17.00;9.40;;;;;;;6.31;64.94;101089.84;1780806;80;21046;-65
2022/12/26 06:23:37;;;;;;;16.25;9.23;;;;;;;6.46;64.30;101093.67;1780730;80;21098;-65
2022/12/26 06:26:04;;;;;;;14.95;8.30;;;;;;;6.90;63.07;101086.45;1780336;80;21045;-66
2022/12/26 06:28:30;;;;;;;22.32;11.08;;;;;;;6.79;63.04;101080.44;1783105;80;21450;-66
2022/12/26 06:31:07;;;;;;;20.00;10.08;;;;;;;6.78;63.24;101079.55;1763272;80;21557;-65
2022/12/26 06:33:36;;;;;;;21.20;9.75;;;;;;;7.00;62.73;101077.67;1749259;81;21048;-66
2022/12/26 06:36:06;;;;;;;14.65;8.48;;;;;;;6.92;63.17;101077.73;1732177;82;21259;-65
2022/12/26 06:38:33;;;;;;;10.60;7.45;;;;;;;7.09;63.31;101076.73;1732058;82;22219;-65
2022/12/26 06:41:00;;;;;;;15.63;8.78;;;;;;;7.23;62.26;101069.62;1743385;82;21534;-66
2022/12/26 06:43:28;;;;;;;12.15;7.17;;;;;;;7.27;62.59;101070.05;1743704;82;21061;-65
2022/12/26 06:45:57;;;;;;;11.57;7.75;;;;;;;7.26;62.36;101072.22;1743544;82;21619;-66
2022/12/26 06:48:24;;;;;;;11.57;7.45;;;;;;;7.39;61.85;101065.58;1743826;82;21118;-66
2022/12/26 06:50:50;;;;;;;10.90;7.50;;;;;;;7.49;61.76;101052.80;1716117;82;21005;-65
2022/12/26 06:53:17;;;;;;;10.78;7.33;;;;;;;7.67;61.10;101059.17;1743671;82;21053;-66
2022/12/26 06:55:43;;;;;;;12.10;7.10;;;;;;;7.67;61.34;101063.11;1743734;82;21042;-65
2022/12/26 06:58:11;;;;;;;8.68;5.62;;;;;;;7.68;61.34;101058.73;1743858;82;21471;-67
2022/12/26 07:00:39;;;;;;;12.35;7.05;;;;;;;7.56;61.05;101057.10;1743465;82;21027;-66
2022/12/26 07:03:06;;;;;;;11.83;6.55;;;;;;;7.70;61.13;101059.13;1743404;82;22032;-66
2022/12/26 07:05:35;;;;;;;11.43;7.53;;;;;;;7.78;60.90;101053.38;1742723;81;21050;-66
2022/12/26 07:08:04;;;;;;;13.70;7.85;;;;;;;7.61;61.47;101060.53;1743422;82;21092;-66
2022/12/26 07:10:36;;;;;;;15.20;8.90;;;;;;;7.68;61.49;101056.97;1743427;82;21089;-65
2022/12/26 07:13:03;;;;;;;14.80;9.05;;;;;;;7.66;61.54;101056.14;1743497;82;21812;-66
2022/12/26 07:15:30;;;;;;;13.50;8.15;;;;;;;7.80;60.55;101055.10;1743325;82;21046;-65
2022/12/26 07:17:56;;;;;;;14.63;8.98;;;;;;;7.97;60.27;101061.05;1743492;82;21048;-67
2022/12/26 07:20:23;;;;;;;13.28;8.75;;;;;;;7.46;60.40;101058.09;1743421;82;21074;-67
2022/12/26 07:22:49;;;;;;;14.60;8.50;;;;;;;7.53;60.89;101057.14;1743424;80;21612;-67
2022/12/26 07:25:17;;;;;;;17.40;10.10;;;;;;;7.93;59.86;101048.84;1743607;82;21045;-65
2022/12/26 07:27:44;;;;;;;14.20;8.93;;;;;;;7.77;59.83;101045.07;1755686;81;21021;-66
2022/12/26 07:30:11;;;;;;;16.90;9.78;;;;;;;7.64;60.25;101049.14;1764134;81;21009;-66
2022/12/26 07:32:39;;;;;;;16.05;10.20;;;;;;;7.74;59.06;101038.56;1764059;81;21084;-67
2022/12/26 07:35:07;;;;;;;12.23;7.42;;;;;;;7.83;59.60;101047.22;1763867;81;21056;-66
2022/12/26 07:37:33;;;;;;;16.65;10.15;;;;;;;8.28;58.47;101044.92;1763966;81;21201;-66
2022/12/26 07:40:00;;;;;;;19.10;10.82;;;;;;;7.89;59.11;101052.38;1763779;81;21033;-66
2022/12/26 07:42:27;;;;;;;12.60;8.08;;;;;;;7.99;59.07;101060.14;1763951;81;21084;-66
2022/12/26 07:44:53;;;;;;;19.02;10.10;;;;;;;8.09;58.82;101059.58;1763980;81;21112;-66
2022/12/26 07:47:20;;;;;;;14.43;9.48;;;;;;;8.33;59.33;101058.88;1763990;81;21537;-65
2022/12/26 07:49:46;;;;;;;19.95;10.75;;;;;;;8.10;58.64;101057.40;1763863;81;21137;-66
2022/12/26 07:52:13;;;;;;;19.95;10.98;;;;;;;8.43;59.17;101052.63;1764024;81;21004;-65
2022/12/26 07:54:39;;;;;;;16.77;10.43;;;;;;;8.18;59.91;101047.66;1763926;81;21588;-65
2022/12/26 10:34:46;;;;;;;51.17;24.70;;;;;;;5.03;78.25;100972.94;1826071;77;22844;-66
2022/12/26 10:37:36;;;;;;;61.10;27.13;;;;;;;5.31;77.34;100983.35;1808622;78;21021;-67
2022/12/26 10:40:20;;;;;;;55.35;27.40;;;;;;;5.58;75.14;100979.81;1831291;77;21478;-68
2022/12/26 10:42:53;;;;;;;54.03;26.85;;;;;;;5.99;72.50;100975.77;1831488;77;21030;-68
2022/12/26 10:45:55;;;;;;;63.75;29.35;;;;;;;5.92;71.61;100969.24;1831556;77;20989;-67
2022/12/26 10:48:22;;;;;;;51.05;25.43;;;;;;;5.93;71.29;100965.73;1807548;78;21057;-67
2022/12/26 10:50:48;;;;;;;52.08;26.55;;;;;;;6.19;70.09;100960.39;1831624;77;21019;-67
2022/12/26 10:53:15;;;;;;;53.15;24.32;;;;;;;6.34;70.00;100959.00;1831447;77;21236;-67
2022/12/26 10:55:42;;;;;;;48.60;23.50;;;;;;;6.14;69.62;100963.03;1831285;78;22148;-66
2022/12/26 10:58:22;;;;;;;47.67;22.37;;;;;;;6.12;70.36;100965.23;1831381;78;21029;-67
2022/12/26 11:00:48;;;;;;;43.10;22.70;;;;;;;6.17;70.35;100957.81;1831479;78;21057;-66
2022/12/26 11:03:19;;;;;;;49.20;22.70;;;;;;;6.14;69.95;100950.41;1831541;78;21782;-66
2022/12/26 11:05:51;;;;;;;62.85;27.07;;;;;;;6.20;69.12;100938.61;1831644;78;21296;-66
2022/12/26 11:08:22;;;;;;;44.60;22.77;;;;;;;6.41;67.92;100928.44;1831833;77;21619;-67
2022/12/26 11:11:18;;;;;;;;;;;;;;;6.11;68.25;100934.74;1834069;78;21026;-65
2022/12/26 11:13:54;;;;;;;38.65;19.48;;;;;;;6.47;67.04;100931.02;1831456;78;20128;-66
2022/12/26 11:16:34;;;;;;;47.85;22.00;;;;;;;6.13;68.11;100936.91;1827486;78;21073;-66
2022/12/26 11:19:01;;;;;;;37.23;20.12;;;;;;;6.28;67.43;100939.41;1831569;78;21144;-67
2022/12/26 11:21:30;;;;;;;35.75;20.55;;;;;;;6.13;68.19;100943.45;1831384;78;21026;-67
2022/12/26 11:24:14;;;;;;;41.23;21.33;;;;;;;6.20;66.96;100937.30;1831575;78;21076;-65
2022/12/26 11:26:42;;;;;;;43.10;22.02;;;;;;;6.10;66.01;100937.80;1798589;79;21041;-66
2022/12/26 11:29:22;;;;;;;38.53;20.92;;;;;;;6.09;66.80;100934.30;1799324;79;21033;-67
2022/12/26 11:32:02;;;;;;;36.65;20.72;;;;;;;6.33;66.05;100930.23;1798908;79;21225;-67
2022/12/26 11:34:44;;;;;;;42.75;23.67;;;;;;;6.48;65.82;100924.45;1805429;79;21001;-66
2022/12/26 11:37:09;;;;;;;43.33;21.70;;;;;;;6.45;65.39;100924.48;1805926;79;21029;-66
2022/12/26 11:39:36;;;;;;;35.28;18.05;;;;;;;6.55;66.12;100925.72;1777941;79;21053;-68
2022/12/26 11:42:13;;;;;;;40.65;20.27;;;;;;;6.58;65.80;100923.06;1806689;79;21570;-66
2022/12/26 11:44:44;;;;;;;37.25;18.92;;;;;;;6.72;65.21;100918.16;1806800;79;21766;-66
2022/12/26 11:47:15;;;;;;;33.33;17.90;;;;;;;7.03;63.96;100917.88;1806614;79;21077;-67
2022/12/26 11:50:06;;;;;;;37.38;17.37;;;;;;;6.99;64.74;100920.53;1806635;79;21033;-67
2022/12/26 11:52:47;;;;;;;36.05;18.75;;;;;;;6.78;64.35;100917.23;1806517;79;22141;-66
2022/12/26 11:55:26;;;;;;;40.83;21.33;;;;;;;6.57;63.95;100916.97;1806513;79;21548;-67
2022/12/26 11:58:13;;;;;;;41.35;21.70;;;;;;;6.15;66.60;100923.39;1806641;79;21159;-68
2022/12/26 12:00:43;;;;;;;36.00;19.77;;;;;;;6.30;64.81;100924.58;1807086;79;21102;-66
2022/12/26 12:03:17;;;;;;;;;;;;;;;6.22;65.05;100926.39;1780099;79;21510;-67
2022/12/26 12:06:20;;;;;;;34.92;17.95;;;;;;;6.13;66.68;100921.22;1806465;79;20177;-66
2022/12/26 12:09:20;;;;;;;53.98;26.25;;;;;;;6.06;67.01;100919.08;1806495;79;21052;-66
2022/12/26 12:11:58;;;;;;;43.50;22.05;;;;;;;6.24;66.05;100923.34;1771158;80;21336;-65
2022/12/26 12:14:40;;;;;;;60.73;29.75;;;;;;;6.17;66.49;100922.95;1799383;79;21021;-66
2022/12/26 12:17:39;;;;;;;39.05;18.85;;;;;;;6.13;66.62;100931.69;1806483;79;21069;-67
2022/12/26 12:20:29;;;;;;;34.53;18.05;;;;;;;6.31;66.95;100936.80;1806272;79;21635;-66
2022/12/26 12:23:22;;;;;;;35.00;18.20;;;;;;;6.09;66.16;100943.45;1806736;79;21057;-68
2022/12/26 12:29:06;;;;;;;36.15;19.67;;;;;;;6.21;67.82;100936.41;1721263;83;21014;-67
2022/12/26 12:31:44;;;;;;;42.98;21.17;;;;;;;6.24;65.94;100922.89;1722331;82;21023;-67
2022/12/26 12:34:23;;;;;;;34.63;18.98;;;;;;;6.25;66.03;100938.13;1722256;83;21190;-67
2022/12/26 12:36:55;;;;;;;42.25;22.82;;;;;;;6.57;65.49;100934.44;1722639;83;21125;-65
2022/12/26 12:39:52;;;;;;;42.75;21.70;;;;;;;6.03;66.46;100940.89;1722450;82;21523;-67
2022/12/26 12:42:39;;;;;;;36.20;20.05;;;;;;;6.07;66.32;100938.70;1722398;83;21010;-67
2022/12/26 12:45:26;;;;;;;37.38;19.82;;;;;;;6.71;65.55;100929.50;1722020;83;21038;-67
2022/12/26 12:48:07;;;;;;;41.90;22.32;;;;;;;6.48;65.65;100927.06;1722352;83;21074;-67
2022/12/26 12:50:50;;;;;;;;;;;;;;;6.36;65.64;100928.47;1724929;83;21066;-67
2022/12/26 12:53:43;;;;;;;43.20;21.00;;;;;;;6.36;67.59;100921.07;1722211;83;21107;-66
2022/12/26 12:56:27;;;;;;;39.48;19.95;;;;;;;6.40;67.24;100911.87;1720560;83;21046;-67
2022/12/26 12:59:18;;;;;;;41.83;20.97;;;;;;;6.30;65.83;100916.73;1722290;83;21069;-66
2022/12/26 13:01:49;;;;;;;41.70;20.23;;;;;;;6.33;67.25;100919.34;1721904;83;21061;-68
2022/12/26 13:04:28;;;;;;;36.88;19.35;;;;;;;6.39;66.03;100919.73;1722236;82;21113;-66
2022/12/26 13:06:58;;;;;;;43.35;21.10;;;;;;;6.57;65.33;100910.88;1715691;83;21142;-67
2022/12/26 13:09:29;;;;;;;43.65;21.00;;;;;;;6.55;65.21;100908.71;1722477;83;21051;-66
2022/12/26 13:12:00;;;;;;;43.80;20.60;;;;;;;6.16;65.73;100906.81;1740406;81;21021;-67
2022/12/26 13:14:35;;;;;;;75.37;32.23;;;;;;;6.25;65.39;100910.67;1722350;83;21097;-67
2022/12/26 13:17:10;;;;;;;35.65;18.92;;;;;;;6.66;65.30;100901.64;1722388;83;21057;-67
2022/12/26 13:19:44;;;;;;;35.38;16.67;;;;;;;6.42;64.98;100905.30;1722399;83;21204;-66
2022/12/26 13:22:25;;;;;;;32.38;16.73;;;;;;;6.25;64.70;100901.06;1722007;83;21026;-67
2022/12/26 13:24:57;;;;;;;46.00;24.75;;;;;;;6.30;65.58;100903.23;1708455;83;24388;-67
2022/12/26 13:27:33;;;;;;;52.48;25.32;;;;;;;6.66;64.27;100895.09;1704415;83;21402;-67
2022/12/26 13:30:00;;;;;;;91.55;45.05;;;;;;;6.45;64.00;100889.61;1719961;83;21061;-67
2022/12/26 13:32:31;;;;;;;61.53;31.50;;;;;;;6.41;64.27;100878.28;1720057;83;21794;-66
2022/12/26 13:34:59;;;;;;;47.48;23.70;;;;;;;5.84;65.14;100873.84;1719770;83;21080;-67
2022/12/26 13:37:46;;;;;;;39.78;20.75;;;;;;;5.86;66.01;100870.78;1719648;83;21100;-67
2022/12/26 13:40:17;;;;;;;61.02;30.52;;;;;;;6.28;65.15;100871.40;1716904;83;21052;-66
2022/12/26 13:45:56;;;;;;;41.95;21.95;;;;;;;5.77;66.39;100870.84;1719935;83;21157;-67
2022/12/26 13:48:31;;;;;;;35.08;19.07;;;;;;;5.72;66.29;100856.93;1720040;83;21037;-67
2022/12/26 13:51:00;;;;;;;41.10;21.17;;;;;;;5.85;65.81;100855.99;1719872;83;21025;-67
2022/12/26 13:53:36;;;;;;;41.83;21.52;;;;;;;5.76;66.76;100856.05;1720038;83;21065;-67
2022/12/26 13:56:22;;;;;;;40.25;21.80;;;;;;;6.11;65.57;100851.06;1719980;83;21052;-66
2022/12/26 13:59:13;;;;;;;44.65;20.52;;;;;;;5.84;66.35;100855.55;1719626;83;21263;-67
2022/12/26 14:02:19;;;;;;;30.62;17.23;;;;;;;5.70;66.97;100865.22;1719738;83;21088;-66
2022/12/26 14:05:33;;;;;;;39.58;21.17;;;;;;;6.16;66.20;100863.20;1718827;83;21076;-67
2022/12/26 14:08:08;;;;;;;35.33;19.05;;;;;;;6.10;65.94;100864.58;1719858;83;21052;-67
2022/12/26 14:10:58;;;;;;;33.33;15.53;;;;;;;6.04;66.02;100853.70;1720060;82;22156;-67
2022/12/26 14:14:09;;;;;;;32.85;17.17;;;;;;;5.70;66.79;100857.37;1698308;83;21645;-67
2022/12/26 14:16:51;;;;;;;39.23;19.45;;;;;;;5.88;66.41;100845.06;1720172;83;21018;-67
2022/12/26 14:20:01;;;;;;;32.35;17.90;;;;;;;5.94;66.77;100849.44;1719904;83;21091;-69
2022/12/26 14:22:58;;;;;;;34.87;19.00;;;;;;;5.95;66.79;100855.08;1699507;83;21048;-67
2022/12/26 14:25:49;;;;;;;37.50;19.60;;;;;;;5.76;67.07;100853.44;1719814;83;21083;-66
2022/12/26 14:28:33;;;;;;;49.42;25.12;;;;;;;5.96;66.54;100845.06;1691799;83;21515;-65
2022/12/26 14:31:17;;;;;;;43.48;23.22;;;;;;;5.80;66.92;100847.31;1681790;85;21111;-67
2022/12/26 14:33:49;;;;;;;39.45;19.92;;;;;;;4.82;70.00;100857.25;1651205;85;21043;-64
2022/12/26 14:36:35;;;;;;;42.23;23.52;;;;;;;4.76;71.69;100854.67;1681995;85;21095;-66
2022/12/26 14:39:26;;;;;;;55.80;29.37;;;;;;;4.74;71.15;100855.11;1681874;85;21104;-65
2022/12/26 17:58:17;;;;;;;52.30;25.50;;;;;;;-0.17;100.00;100668.47;1840682;76;26175;-96
2022/12/26 18:00:48;;;;;;;47.05;23.52;;;;;;;1.51;100.00;100667.00;1755487;78;21013;-96
2022/12/26 18:03:15;;;;;;;45.08;22.70;;;;;;;2.26;100.00;100663.64;1719537;79;86752;-64
2022/12/26 18:05:42;;;;;;;47.48;24.72;;;;;;;2.63;100.00;100670.31;1719490;81;21099;-64
2022/12/26 18:08:17;;;;;;;47.33;25.17;;;;;;;2.88;100.00;100654.80;1726552;81;21052;-65
2022/12/26 18:10:44;;;;;;;44.90;22.90;;;;;;;3.10;100.00;100645.30;1720845;81;21047;-65
2022/12/26 18:13:14;;;;;;;40.25;21.62;;;;;;;2.67;100.00;100638.27;1716938;81;21108;-65
2022/12/26 18:15:40;;;;;;;42.23;21.50;;;;;;;2.65;100.00;100629.58;1724047;81;21129;-64
2022/12/26 18:18:25;;;;;;;37.13;21.00;;;;;;;2.75;100.00;100628.31;1719117;81;21269;-65
2022/12/26 18:20:51;;;;;;;42.58;21.97;;;;;;;2.86;100.00;100620.11;1720143;81;21159;-63
2022/12/26 18:23:19;;;;;;;40.88;21.30;;;;;;;3.41;100.00;100621.47;1727072;81;21032;-66
2022/12/26 18:25:46;;;;;;;41.25;21.15;;;;;;;3.36;100.00;100618.88;1718329;81;21056;-65
2022/12/26 18:28:13;;;;;;;43.42;22.82;;;;;;;3.05;100.00;100614.05;1739680;81;21126;-66
2022/12/26 18:30:40;;;;;;;38.25;22.05;;;;;;;3.15;100.00;100614.52;1748622;81;21064;-64
2022/12/26 18:33:09;;;;;;;43.73;22.52;;;;;;;3.19;100.00;100602.80;1740060;81;21044;-64
2022/12/26 18:35:41;;;;;;;37.35;20.25;;;;;;;3.44;100.00;100601.94;1739995;81;21525;-64
2022/12/26 18:38:13;;;;;;;37.50;18.67;;;;;;;3.58;100.00;100602.78;1740317;81;21197;-66
2022/12/26 18:40:43;;;;;;;38.45;14.23;;;;;;;3.61;100.00;100604.95;1744342;81;21712;-65
2022/12/26 18:43:10;;;;;;;;;;;;;;;3.55;100.00;100605.41;1747067;81;21032;-66
2022/12/26 18:45:37;;;;;;;36.40;17.75;;;;;;;4.13;100.00;100591.39;1742223;81;20145;-64
2022/12/26 18:48:05;;;;;;;39.38;19.87;;;;;;;3.83;100.00;100584.52;1738247;81;21023;-66
2022/12/26 18:50:32;;;;;;;32.90;17.05;;;;;;;3.90;100.00;100575.81;1741442;81;21171;-65
2022/12/26 18:52:59;;;;;;;38.63;20.08;;;;;;;4.05;100.00;100567.52;1744868;81;22170;-64
2022/12/26 18:55:27;;;;;;;36.42;18.32;;;;;;;4.12;100.00;100558.83;1738526;81;21041;-65
2022/12/26 18:57:54;;;;;;;35.15;18.07;;;;;;;4.60;100.00;100563.36;1729433;81;21108;-66
2022/12/26 19:00:21;;;;;;;31.73;15.85;;;;;;;4.57;100.00;100562.94;1708263;82;21819;-67
2022/12/26 19:02:48;;;;;;;42.95;21.12;;;;;;;4.45;100.00;100558.24;1710412;82;21080;-66
2022/12/26 19:05:26;;;;;;;35.70;19.32;;;;;;;3.79;100.00;100559.34;1710028;82;21086;-66
2022/12/26 19:07:53;;;;;;;38.58;20.17;;;;;;;3.97;100.00;100546.26;1693597;83;21128;-66
2022/12/26 19:10:25;;;;;;;46.68;21.10;;;;;;;4.01;100.00;100528.03;1715191;82;21716;-63
2022/12/26 19:12:51;;;;;;;;;;;;;;;4.18;100.00;100520.98;1665492;84;21079;-67
2022/12/26 19:15:18;;;;;;;34.13;17.60;;;;;;;4.29;100.00;100515.28;1641137;85;20209;-66
2022/12/26 19:17:45;;;;;;;88.22;41.25;;;;;;;4.33;100.00;100512.23;1662647;84;21077;-66
2022/12/26 19:20:21;;;;;;;52.90;27.30;;;;;;;4.21;100.00;100509.27;1658178;84;21072;-66
2022/12/26 19:22:48;;;;;;;51.25;26.02;;;;;;;4.70;100.00;100497.22;1666152;84;21121;-66
2022/12/26 19:25:15;;;;;;;118.45;45.33;;;;;;;4.57;100.00;100487.30;1664051;84;21730;-66
2022/12/26 19:27:42;;;;;;;58.08;29.00;;;;;;;4.12;100.00;100492.36;1694872;83;21639;-64
2022/12/26 19:30:11;;;;;;;48.23;23.00;;;;;;;4.02;100.00;100490.66;1710433;83;21065;-66
2022/12/26 19:32:37;;;;;;;30.17;13.93;;;;;;;4.51;100.00;100493.88;1709183;83;21056;-66
2022/12/26 19:35:05;;;;;;;34.38;17.07;;;;;;;4.25;100.00;100492.70;1707119;83;21108;-67
2022/12/26 19:37:33;;;;;;;39.10;20.50;;;;;;;3.99;100.00;100491.09;1709713;83;21049;-65
2022/12/26 19:40:00;;;;;;;38.10;17.65;;;;;;;4.38;100.00;100488.30;1712685;83;21080;-65
2022/12/26 19:42:26;;;;;;;31.37;14.70;;;;;;;3.93;100.00;100479.41;1702310;83;21221;-66
2022/12/26 19:44:53;;;;;;;48.58;23.92;;;;;;;4.04;100.00;100475.88;1711305;83;21097;-65
2022/12/26 19:47:19;;;;;;;30.85;14.87;;;;;;;4.74;100.00;100471.95;1660914;83;21141;-65
2022/12/26 19:49:45;;;;;;;29.70;15.20;;;;;;;4.03;100.00;100479.38;1659151;85;21081;-66
2022/12/26 19:52:12;;;;;;;33.65;17.57;;;;;;;4.13;100.00;100477.14;1653622;84;21089;-66